sensor_id;sensor_type;location;lat;lon;timestamp;P1;durP1;ratioP1;P2;durP2;ratioP2
26620;SDS011;14253;44.840;10.444;2023-06-24T00:00:09;10.23;;;6.82;;
26620;SDS011;14253;44.840;10.444;2023-06-24T00:02:37;10.65;;;7.55;;
26620;SDS011;14253;44.840;10.444;2023-06-24T00:05:03;13.18;;;7.47;;
26620;SDS011;14253;44.840;10.444;2023-06-24T00:07:30;14.02;;;8.18;;
26620;SDS011;14253;44.840;10.444;2023-06-24T00:09:56;13.20;;;7.90;;
26620;SDS011;14253;44.840;10.444;2023-06-24T00:12:22;13.80;;;8.35;;
26620;SDS011;14253;44.840;10.444;2023-06-24T00:14:48;12.93;;;7.40;;
26620;SDS011;14253;44.840;10.444;2023-06-24T00:17:15;12.93;;;7.28;;
26620;SDS011;14253;44.840;10.444;2023-06-24T00:19:41;11.18;;;8.25;;
26620;SDS011;14253;44.840;10.444;2023-06-24T00:22:09;12.52;;;7.43;;
26620;SDS011;14253;44.840;10.444;2023-06-24T00:24:35;15.90;;;7.97;;
26620;SDS011;14253;44.840;10.444;2023-06-24T00:27:01;9.07;;;7.63;;
26620;SDS011;14253;44.840;10.444;2023-06-24T00:29:26;10.82;;;7.32;;
26620;SDS011;14253;44.840;10.444;2023-06-24T00:31:53;9.02;;;7.43;;
26620;SDS011;14253;44.840;10.444;2023-06-24T00:34:19;9.93;;;7.78;;
26620;SDS011;14253;44.840;10.444;2023-06-24T00:36:46;12.40;;;6.93;;
26620;SDS011;14253;44.840;10.444;2023-06-24T00:39:14;11.25;;;7.60;;
26620;SDS011;14253;44.840;10.444;2023-06-24T00:41:40;13.68;;;7.80;;
26620;SDS011;14253;44.840;10.444;2023-06-24T00:44:06;10.07;;;7.53;;
26620;SDS011;14253;44.840;10.444;2023-06-24T00:46:32;13.07;;;9.15;;
26620;SDS011;14253;44.840;10.444;2023-06-24T00:48:59;12.27;;;8.60;;
26620;SDS011;14253;44.840;10.444;2023-06-24T00:51:28;17.10;;;9.93;;
26620;SDS011;14253;44.840;10.444;2023-06-24T00:53:59;15.70;;;9.70;;
26620;SDS011;14253;44.840;10.444;2023-06-24T00:56:26;12.93;;;10.02;;
26620;SDS011;14253;44.840;10.444;2023-06-24T00:58:57;15.30;;;9.93;;
26620;SDS011;14253;44.840;10.444;2023-06-24T01:01:28;10.52;;;8.43;;
26620;SDS011;14253;44.840;10.444;2023-06-24T01:03:59;12.70;;;8.55;;
26620;SDS011;14253;44.840;10.444;2023-06-24T01:06:26;13.43;;;10.70;;
26620;SDS011;14253;44.840;10.444;2023-06-24T01:08:56;14.65;;;10.45;;
26620;SDS011;14253;44.840;10.444;2023-06-24T01:11:25;11.93;;;9.20;;
26620;SDS011;14253;44.840;10.444;2023-06-24T01:13:53;12.30;;;8.38;;
26620;SDS011;14253;44.840;10.444;2023-06-24T01:33:15;12.27;;;9.18;;
26620;SDS011;14253;44.840;10.444;2023-06-24T01:35:50;19.80;;;9.80;;
26620;SDS011;14253;44.840;10.444;2023-06-24T01:38:22;15.52;;;9.77;;
26620;SDS011;14253;44.840;10.444;2023-06-24T01:40:57;13.70;;;8.98;;
26620;SDS011;14253;44.840;10.444;2023-06-24T01:43:24;14.43;;;10.48;;
26620;SDS011;14253;44.840;10.444;2023-06-24T01:45:52;15.05;;;9.57;;
26620;SDS011;14253;44.840;10.444;2023-06-24T01:48:25;13.02;;;10.18;;
26620;SDS011;14253;44.840;10.444;2023-06-24T01:53:49;17.98;;;10.80;;
26620;SDS011;14253;44.840;10.444;2023-06-24T01:56:17;15.20;;;10.95;;
26620;SDS011;14253;44.840;10.444;2023-06-24T01:58:47;16.40;;;11.35;;
26620;SDS011;14253;44.840;10.444;2023-06-24T02:01:17;15.05;;;10.90;;
26620;SDS011;14253;44.840;10.444;2023-06-24T02:03:43;17.48;;;10.73;;
26620;SDS011;14253;44.840;10.444;2023-06-24T02:06:10;15.52;;;10.80;;
26620;SDS011;14253;44.840;10.444;2023-06-24T02:08:38;20.27;;;11.55;;
26620;SDS011;14253;44.840;10.444;2023-06-24T02:11:07;13.98;;;10.50;;
26620;SDS011;14253;44.840;10.444;2023-06-24T02:13:34;20.95;;;11.57;;
26620;SDS011;14253;44.840;10.444;2023-06-24T02:16:01;19.35;;;11.20;;
26620;SDS011;14253;44.840;10.444;2023-06-24T02:18:29;17.52;;;11.13;;
26620;SDS011;14253;44.840;10.444;2023-06-24T02:20:55;17.70;;;12.57;;
26620;SDS011;14253;44.840;10.444;2023-06-24T02:23:22;18.50;;;12.60;;
26620;SDS011;14253;44.840;10.444;2023-06-24T02:25:49;19.27;;;12.88;;
26620;SDS011;14253;44.840;10.444;2023-06-24T02:28:15;18.90;;;14.10;;
26620;SDS011;14253;44.840;10.444;2023-06-24T02:30:42;17.73;;;13.73;;
26620;SDS011;14253;44.840;10.444;2023-06-24T02:33:10;19.98;;;13.88;;
26620;SDS011;14253;44.840;10.444;2023-06-24T02:35:37;18.38;;;13.45;;
26620;SDS011;14253;44.840;10.444;2023-06-24T02:38:03;18.92;;;13.13;;
26620;SDS011;14253;44.840;10.444;2023-06-24T02:40:29;19.50;;;14.40;;
26620;SDS011;14253;44.840;10.444;2023-06-24T02:42:56;18.92;;;14.25;;
26620;SDS011;14253;44.840;10.444;2023-06-24T02:45:23;18.30;;;14.10;;
26620;SDS011;14253;44.840;10.444;2023-06-24T02:47:50;22.50;;;14.85;;
26620;SDS011;14253;44.840;10.444;2023-06-24T02:50:16;23.48;;;14.45;;
26620;SDS011;14253;44.840;10.444;2023-06-24T02:52:43;20.08;;;14.43;;
26620;SDS011;14253;44.840;10.444;2023-06-24T02:55:12;17.67;;;14.20;;
26620;SDS011;14253;44.840;10.444;2023-06-24T02:57:52;18.02;;;14.27;;
26620;SDS011;14253;44.840;10.444;2023-06-24T03:00:18;19.98;;;14.95;;
26620;SDS011;14253;44.840;10.444;2023-06-24T03:03:04;17.40;;;14.95;;
26620;SDS011;14253;44.840;10.444;2023-06-24T03:05:34;21.58;;;14.82;;
26620;SDS011;14253;44.840;10.444;2023-06-24T03:08:01;21.65;;;15.38;;
26620;SDS011;14253;44.840;10.444;2023-06-24T03:10:32;25.03;;;15.70;;
26620;SDS011;14253;44.840;10.444;2023-06-24T03:12:58;24.40;;;15.10;;
26620;SDS011;14253;44.840;10.444;2023-06-24T03:15:34;20.40;;;14.40;;
26620;SDS011;14253;44.840;10.444;2023-06-24T03:18:02;19.48;;;14.50;;
26620;SDS011;14253;44.840;10.444;2023-06-24T03:20:28;20.45;;;12.75;;
26620;SDS011;14253;44.840;10.444;2023-06-24T03:23:01;19.08;;;13.30;;
26620;SDS011;14253;44.840;10.444;2023-06-24T03:25:27;19.77;;;14.13;;
26620;SDS011;14253;44.840;10.444;2023-06-24T03:27:53;18.38;;;13.57;;
26620;SDS011;14253;44.840;10.444;2023-06-24T03:30:19;17.30;;;12.15;;
26620;SDS011;14253;44.840;10.444;2023-06-24T03:32:45;21.08;;;12.32;;
26620;SDS011;14253;44.840;10.444;2023-06-24T03:35:13;18.25;;;11.57;;
26620;SDS011;14253;44.840;10.444;2023-06-24T03:37:39;17.77;;;11.40;;
26620;SDS011;14253;44.840;10.444;2023-06-24T03:40:06;17.60;;;11.60;;
26620;SDS011;14253;44.840;10.444;2023-06-24T03:42:34;16.75;;;10.90;;
26620;SDS011;14253;44.840;10.444;2023-06-24T03:45:01;15.80;;;9.85;;
26620;SDS011;14253;44.840;10.444;2023-06-24T03:47:28;17.08;;;10.38;;
26620;SDS011;14253;44.840;10.444;2023-06-24T03:49:54;14.90;;;10.40;;
26620;SDS011;14253;44.840;10.444;2023-06-24T03:52:20;14.25;;;10.38;;
26620;SDS011;14253;44.840;10.444;2023-06-24T03:54:46;15.02;;;10.25;;
26620;SDS011;14253;44.840;10.444;2023-06-24T03:57:12;13.60;;;8.70;;
26620;SDS011;14253;44.840;10.444;2023-06-24T03:59:39;17.45;;;9.80;;
26620;SDS011;14253;44.840;10.444;2023-06-24T04:02:05;15.13;;;8.95;;
26620;SDS011;14253;44.840;10.444;2023-06-24T04:04:35;15.35;;;9.52;;
26620;SDS011;14253;44.840;10.444;2023-06-24T04:07:02;12.10;;;9.20;;
26620;SDS011;14253;44.840;10.444;2023-06-24T04:09:32;14.20;;;10.50;;
26620;SDS011;14253;44.840;10.444;2023-06-24T04:12:00;14.60;;;10.02;;
26620;SDS011;14253;44.840;10.444;2023-06-24T04:14:32;19.45;;;11.32;;
26620;SDS011;14253;44.840;10.444;2023-06-24T04:16:58;19.67;;;11.27;;
26620;SDS011;14253;44.840;10.444;2023-06-24T04:19:24;12.52;;;8.45;;
26620;SDS011;14253;44.840;10.444;2023-06-24T04:21:50;12.90;;;9.13;;
26620;SDS011;14253;44.840;10.444;2023-06-24T04:24:16;13.55;;;8.38;;
26620;SDS011;14253;44.840;10.444;2023-06-24T04:26:42;15.45;;;8.55;;
26620;SDS011;14253;44.840;10.444;2023-06-24T04:29:08;12.55;;;8.95;;
26620;SDS011;14253;44.840;10.444;2023-06-24T04:31:34;14.52;;;8.80;;
26620;SDS011;14253;44.840;10.444;2023-06-24T04:34:00;16.58;;;10.27;;
26620;SDS011;14253;44.840;10.444;2023-06-24T04:36:26;16.00;;;9.85;;
26620;SDS011;14253;44.840;10.444;2023-06-24T04:38:52;13.90;;;8.90;;
26620;SDS011;14253;44.840;10.444;2023-06-24T04:41:18;14.70;;;10.27;;
26620;SDS011;14253;44.840;10.444;2023-06-24T04:43:44;15.63;;;9.93;;
26620;SDS011;14253;44.840;10.444;2023-06-24T04:46:10;12.93;;;9.32;;
26620;SDS011;14253;44.840;10.444;2023-06-24T04:48:36;17.73;;;9.32;;
26620;SDS011;14253;44.840;10.444;2023-06-24T04:51:02;13.00;;;8.70;;
26620;SDS011;14253;44.840;10.444;2023-06-24T04:53:28;11.20;;;8.60;;
26620;SDS011;14253;44.840;10.444;2023-06-24T04:55:54;11.90;;;8.82;;
26620;SDS011;14253;44.840;10.444;2023-06-24T04:58:20;12.48;;;8.55;;
26620;SDS011;14253;44.840;10.444;2023-06-24T05:00:46;12.23;;;8.57;;
26620;SDS011;14253;44.840;10.444;2023-06-24T05:03:12;13.35;;;9.85;;
26620;SDS011;14253;44.840;10.444;2023-06-24T05:05:38;13.05;;;8.48;;
26620;SDS011;14253;44.840;10.444;2023-06-24T05:08:04;11.07;;;8.25;;
26620;SDS011;14253;44.840;10.444;2023-06-24T05:10:30;14.70;;;9.75;;
26620;SDS011;14253;44.840;10.444;2023-06-24T05:12:56;14.25;;;9.52;;
26620;SDS011;14253;44.840;10.444;2023-06-24T05:15:22;13.32;;;8.75;;
26620;SDS011;14253;44.840;10.444;2023-06-24T05:17:48;11.32;;;8.65;;
26620;SDS011;14253;44.840;10.444;2023-06-24T05:20:14;20.55;;;9.15;;
26620;SDS011;14253;44.840;10.444;2023-06-24T05:22:40;15.00;;;8.65;;
26620;SDS011;14253;44.840;10.444;2023-06-24T05:25:06;15.45;;;8.57;;
26620;SDS011;14253;44.840;10.444;2023-06-24T05:27:32;12.73;;;8.93;;
26620;SDS011;14253;44.840;10.444;2023-06-24T05:29:58;15.07;;;9.15;;
26620;SDS011;14253;44.840;10.444;2023-06-24T05:32:24;14.60;;;8.88;;
26620;SDS011;14253;44.840;10.444;2023-06-24T05:34:49;14.63;;;8.25;;
26620;SDS011;14253;44.840;10.444;2023-06-24T05:37:16;12.98;;;8.93;;
26620;SDS011;14253;44.840;10.444;2023-06-24T05:39:41;14.10;;;9.38;;
26620;SDS011;14253;44.840;10.444;2023-06-24T05:42:07;13.15;;;9.85;;
26620;SDS011;14253;44.840;10.444;2023-06-24T05:44:33;12.60;;;8.30;;
26620;SDS011;14253;44.840;10.444;2023-06-24T05:46:59;13.65;;;9.10;;
26620;SDS011;14253;44.840;10.444;2023-06-24T05:49:25;13.65;;;9.20;;
26620;SDS011;14253;44.840;10.444;2023-06-24T05:51:51;14.98;;;9.55;;
26620;SDS011;14253;44.840;10.444;2023-06-24T05:54:17;14.60;;;10.07;;
26620;SDS011;14253;44.840;10.444;2023-06-24T05:56:43;13.93;;;9.85;;
26620;SDS011;14253;44.840;10.444;2023-06-24T05:59:09;15.75;;;9.88;;
26620;SDS011;14253;44.840;10.444;2023-06-24T06:01:35;11.45;;;8.55;;
26620;SDS011;14253;44.840;10.444;2023-06-24T06:04:01;14.15;;;8.95;;
26620;SDS011;14253;44.840;10.444;2023-06-24T06:06:27;13.57;;;9.48;;
26620;SDS011;14253;44.840;10.444;2023-06-24T06:08:53;16.73;;;9.40;;
26620;SDS011;14253;44.840;10.444;2023-06-24T06:11:19;11.48;;;8.57;;
26620;SDS011;14253;44.840;10.444;2023-06-24T06:13:45;14.85;;;8.65;;
26620;SDS011;14253;44.840;10.444;2023-06-24T06:16:11;13.80;;;9.02;;
26620;SDS011;14253;44.840;10.444;2023-06-24T06:18:37;14.15;;;8.93;;
26620;SDS011;14253;44.840;10.444;2023-06-24T06:21:03;10.43;;;7.65;;
26620;SDS011;14253;44.840;10.444;2023-06-24T06:23:29;11.93;;;7.85;;
26620;SDS011;14253;44.840;10.444;2023-06-24T06:25:55;12.30;;;8.13;;
26620;SDS011;14253;44.840;10.444;2023-06-24T06:28:21;13.60;;;7.32;;
26620;SDS011;14253;44.840;10.444;2023-06-24T06:30:47;14.38;;;7.30;;
26620;SDS011;14253;44.840;10.444;2023-06-24T06:33:13;10.82;;;7.05;;
26620;SDS011;14253;44.840;10.444;2023-06-24T06:35:38;10.45;;;6.78;;
26620;SDS011;14253;44.840;10.444;2023-06-24T06:38:04;12.05;;;6.80;;
26620;SDS011;14253;44.840;10.444;2023-06-24T06:40:30;9.80;;;5.97;;
26620;SDS011;14253;44.840;10.444;2023-06-24T06:42:56;12.55;;;6.65;;
26620;SDS011;14253;44.840;10.444;2023-06-24T06:45:22;13.68;;;8.10;;
26620;SDS011;14253;44.840;10.444;2023-06-24T06:47:49;12.02;;;7.30;;
26620;SDS011;14253;44.840;10.444;2023-06-24T06:50:15;8.52;;;6.88;;
26620;SDS011;14253;44.840;10.444;2023-06-24T06:52:41;11.20;;;6.50;;
26620;SDS011;14253;44.840;10.444;2023-06-24T06:55:07;9.95;;;7.00;;
26620;SDS011;14253;44.840;10.444;2023-06-24T06:57:34;13.52;;;6.90;;
26620;SDS011;14253;44.840;10.444;2023-06-24T07:00:01;7.90;;;6.38;;
26620;SDS011;14253;44.840;10.444;2023-06-24T07:02:27;9.18;;;6.45;;
26620;SDS011;14253;44.840;10.444;2023-06-24T07:04:53;11.07;;;8.20;;
26620;SDS011;14253;44.840;10.444;2023-06-24T07:07:19;9.88;;;8.73;;
26620;SDS011;14253;44.840;10.444;2023-06-24T07:09:44;13.32;;;7.75;;
26620;SDS011;14253;44.840;10.444;2023-06-24T07:12:11;10.90;;;8.10;;
26620;SDS011;14253;44.840;10.444;2023-06-24T07:14:38;13.68;;;7.30;;
26620;SDS011;14253;44.840;10.444;2023-06-24T07:17:04;10.68;;;7.32;;
26620;SDS011;14253;44.840;10.444;2023-06-24T07:19:32;10.70;;;6.82;;
26620;SDS011;14253;44.840;10.444;2023-06-24T07:21:58;13.25;;;7.80;;
26620;SDS011;14253;44.840;10.444;2023-06-24T07:24:24;11.35;;;7.85;;
26620;SDS011;14253;44.840;10.444;2023-06-24T07:26:50;12.55;;;7.30;;
26620;SDS011;14253;44.840;10.444;2023-06-24T07:29:16;15.57;;;8.18;;
26620;SDS011;14253;44.840;10.444;2023-06-24T07:31:41;16.67;;;7.68;;
26620;SDS011;14253;44.840;10.444;2023-06-24T07:34:07;12.15;;;7.57;;
26620;SDS011;14253;44.840;10.444;2023-06-24T07:36:33;13.40;;;7.00;;
26620;SDS011;14253;44.840;10.444;2023-06-24T07:38:59;11.95;;;7.40;;
26620;SDS011;14253;44.840;10.444;2023-06-24T07:41:25;10.10;;;7.07;;
26620;SDS011;14253;44.840;10.444;2023-06-24T07:43:51;11.57;;;6.25;;
26620;SDS011;14253;44.840;10.444;2023-06-24T07:46:17;10.88;;;6.50;;
26620;SDS011;14253;44.840;10.444;2023-06-24T07:48:43;8.95;;;5.10;;
26620;SDS011;14253;44.840;10.444;2023-06-24T07:51:09;6.57;;;4.65;;
26620;SDS011;14253;44.840;10.444;2023-06-24T07:53:35;9.68;;;5.70;;
26620;SDS011;14253;44.840;10.444;2023-06-24T07:56:01;7.90;;;4.63;;
26620;SDS011;14253;44.840;10.444;2023-06-24T07:58:27;7.22;;;4.38;;
26620;SDS011;14253;44.840;10.444;2023-06-24T08:00:53;6.78;;;4.07;;
26620;SDS011;14253;44.840;10.444;2023-06-24T08:03:19;7.78;;;4.55;;
26620;SDS011;14253;44.840;10.444;2023-06-24T08:05:45;6.70;;;4.68;;
26620;SDS011;14253;44.840;10.444;2023-06-24T08:08:11;5.63;;;4.05;;
26620;SDS011;14253;44.840;10.444;2023-06-24T08:10:37;8.82;;;4.57;;
26620;SDS011;14253;44.840;10.444;2023-06-24T08:13:02;8.10;;;4.05;;
26620;SDS011;14253;44.840;10.444;2023-06-24T08:15:28;9.98;;;3.95;;
26620;SDS011;14253;44.840;10.444;2023-06-24T08:17:54;12.57;;;3.75;;
26620;SDS011;14253;44.840;10.444;2023-06-24T08:20:21;9.13;;;4.40;;
26620;SDS011;14253;44.840;10.444;2023-06-24T08:22:48;21.90;;;4.32;;
26620;SDS011;14253;44.840;10.444;2023-06-24T08:25:14;7.72;;;3.45;;
26620;SDS011;14253;44.840;10.444;2023-06-24T08:27:40;6.78;;;3.75;;
26620;SDS011;14253;44.840;10.444;2023-06-24T08:30:08;5.47;;;3.28;;
26620;SDS011;14253;44.840;10.444;2023-06-24T08:32:34;7.90;;;3.45;;
26620;SDS011;14253;44.840;10.444;2023-06-24T08:35:00;7.72;;;3.40;;
26620;SDS011;14253;44.840;10.444;2023-06-24T08:37:26;8.05;;;3.83;;
26620;SDS011;14253;44.840;10.444;2023-06-24T08:39:53;7.78;;;3.75;;
26620;SDS011;14253;44.840;10.444;2023-06-24T08:42:19;7.28;;;3.92;;
26620;SDS011;14253;44.840;10.444;2023-06-24T08:44:44;5.78;;;3.50;;
26620;SDS011;14253;44.840;10.444;2023-06-24T08:47:11;5.03;;;3.28;;
26620;SDS011;14253;44.840;10.444;2023-06-24T08:49:43;4.28;;;3.05;;
26620;SDS011;14253;44.840;10.444;2023-06-24T08:52:17;8.63;;;3.30;;
26620;SDS011;14253;44.840;10.444;2023-06-24T08:54:46;7.63;;;3.45;;
26620;SDS011;14253;44.840;10.444;2023-06-24T08:57:14;8.50;;;3.55;;
26620;SDS011;14253;44.840;10.444;2023-06-24T08:59:40;5.93;;;3.53;;
26620;SDS011;14253;44.840;10.444;2023-06-24T09:02:07;5.68;;;3.30;;
26620;SDS011;14253;44.840;10.444;2023-06-24T09:04:34;5.32;;;3.10;;
26620;SDS011;14253;44.840;10.444;2023-06-24T09:07:00;4.93;;;3.45;;
26620;SDS011;14253;44.840;10.444;2023-06-24T09:09:26;6.78;;;3.70;;
26620;SDS011;14253;44.840;10.444;2023-06-24T09:11:58;7.18;;;3.40;;
26620;SDS011;14253;44.840;10.444;2023-06-24T09:14:25;4.68;;;3.28;;
26620;SDS011;14253;44.840;10.444;2023-06-24T09:16:59;4.75;;;2.97;;
26620;SDS011;14253;44.840;10.444;2023-06-24T09:19:32;7.15;;;3.05;;
26620;SDS011;14253;44.840;10.444;2023-06-24T09:22:02;5.55;;;3.08;;
26620;SDS011;14253;44.840;10.444;2023-06-24T09:24:32;6.40;;;3.35;;
26620;SDS011;14253;44.840;10.444;2023-06-24T09:26:59;6.10;;;3.03;;
26620;SDS011;14253;44.840;10.444;2023-06-24T09:29:26;7.70;;;3.47;;
26620;SDS011;14253;44.840;10.444;2023-06-24T09:31:53;6.88;;;3.20;;
26620;SDS011;14253;44.840;10.444;2023-06-24T09:34:21;5.50;;;3.33;;
26620;SDS011;14253;44.840;10.444;2023-06-24T09:36:53;4.63;;;3.00;;
26620;SDS011;14253;44.840;10.444;2023-06-24T09:39:21;6.30;;;2.80;;
26620;SDS011;14253;44.840;10.444;2023-06-24T09:41:53;5.63;;;2.95;;
26620;SDS011;14253;44.840;10.444;2023-06-24T09:44:20;4.47;;;2.78;;
26620;SDS011;14253;44.840;10.444;2023-06-24T09:46:46;5.55;;;3.17;;
26620;SDS011;14253;44.840;10.444;2023-06-24T09:49:13;5.00;;;2.63;;
26620;SDS011;14253;44.840;10.444;2023-06-24T09:51:49;4.97;;;2.97;;
26620;SDS011;14253;44.840;10.444;2023-06-24T09:54:19;4.65;;;2.90;;
26620;SDS011;14253;44.840;10.444;2023-06-24T09:56:50;5.55;;;2.45;;
26620;SDS011;14253;44.840;10.444;2023-06-24T09:59:18;8.18;;;2.97;;
26620;SDS011;14253;44.840;10.444;2023-06-24T10:01:46;4.00;;;3.00;;
26620;SDS011;14253;44.840;10.444;2023-06-24T10:04:16;5.75;;;3.08;;
26620;SDS011;14253;44.840;10.444;2023-06-24T10:06:43;5.97;;;3.45;;
26620;SDS011;14253;44.840;10.444;2023-06-24T10:09:09;4.13;;;3.20;;
26620;SDS011;14253;44.840;10.444;2023-06-24T10:11:38;7.28;;;3.08;;
26620;SDS011;14253;44.840;10.444;2023-06-24T10:14:08;4.20;;;2.95;;
26620;SDS011;14253;44.840;10.444;2023-06-24T10:16:34;6.55;;;2.90;;
26620;SDS011;14253;44.840;10.444;2023-06-24T10:19:00;3.95;;;3.35;;
26620;SDS011;14253;44.840;10.444;2023-06-24T10:21:46;5.32;;;3.50;;
26620;SDS011;14253;44.840;10.444;2023-06-24T10:24:30;7.07;;;2.90;;
26620;SDS011;14253;44.840;10.444;2023-06-24T10:27:14;5.70;;;2.90;;
26620;SDS011;14253;44.840;10.444;2023-06-24T10:29:45;4.13;;;3.08;;
26620;SDS011;14253;44.840;10.444;2023-06-24T10:32:12;5.45;;;3.20;;
26620;SDS011;14253;44.840;10.444;2023-06-24T10:34:42;4.28;;;2.90;;
26620;SDS011;14253;44.840;10.444;2023-06-24T10:39:39;5.97;;;3.00;;
26620;SDS011;14253;44.840;10.444;2023-06-24T10:44:58;6.03;;;3.20;;
26620;SDS011;14253;44.840;10.444;2023-06-24T10:47:37;6.38;;;3.53;;
26620;SDS011;14253;44.840;10.444;2023-06-24T10:50:04;5.55;;;3.13;;
26620;SDS011;14253;44.840;10.444;2023-06-24T10:52:31;6.38;;;2.83;;
26620;SDS011;14253;44.840;10.444;2023-06-24T10:54:58;4.05;;;3.17;;
26620;SDS011;14253;44.840;10.444;2023-06-24T10:57:27;3.85;;;2.72;;
26620;SDS011;14253;44.840;10.444;2023-06-24T10:59:54;4.80;;;3.22;;
26620;SDS011;14253;44.840;10.444;2023-06-24T11:02:24;5.55;;;3.25;;
26620;SDS011;14253;44.840;10.444;2023-06-24T11:04:52;6.05;;;2.72;;
26620;SDS011;14253;44.840;10.444;2023-06-24T11:07:19;3.92;;;2.95;;
26620;SDS011;14253;44.840;10.444;2023-06-24T11:09:53;4.10;;;3.15;;
26620;SDS011;14253;44.840;10.444;2023-06-24T11:12:27;4.45;;;2.60;;
26620;SDS011;14253;44.840;10.444;2023-06-24T11:14:56;3.90;;;2.70;;
26620;SDS011;14253;44.840;10.444;2023-06-24T11:17:23;3.30;;;2.60;;
26620;SDS011;14253;44.840;10.444;2023-06-24T11:19:51;4.90;;;2.67;;
26620;SDS011;14253;44.840;10.444;2023-06-24T11:22:18;6.47;;;3.00;;
26620;SDS011;14253;44.840;10.444;2023-06-24T11:24:44;6.60;;;3.30;;
26620;SDS011;14253;44.840;10.444;2023-06-24T11:27:10;7.97;;;3.05;;
26620;SDS011;14253;44.840;10.444;2023-06-24T11:29:36;8.02;;;3.42;;
26620;SDS011;14253;44.840;10.444;2023-06-24T11:32:02;4.50;;;2.72;;
26620;SDS011;14253;44.840;10.444;2023-06-24T11:34:29;5.50;;;2.78;;
26620;SDS011;14253;44.840;10.444;2023-06-24T11:36:55;3.45;;;2.70;;
26620;SDS011;14253;44.840;10.444;2023-06-24T11:39:25;5.03;;;2.80;;
26620;SDS011;14253;44.840;10.444;2023-06-24T11:41:52;5.38;;;2.40;;
26620;SDS011;14253;44.840;10.444;2023-06-24T11:44:25;4.40;;;2.53;;
26620;SDS011;14253;44.840;10.444;2023-06-24T11:46:51;4.38;;;2.20;;
26620;SDS011;14253;44.840;10.444;2023-06-24T11:49:18;5.20;;;2.65;;
26620;SDS011;14253;44.840;10.444;2023-06-24T11:51:48;5.13;;;2.47;;
26620;SDS011;14253;44.840;10.444;2023-06-24T11:54:15;4.95;;;2.40;;
26620;SDS011;14253;44.840;10.444;2023-06-24T11:56:43;4.30;;;2.80;;
26620;SDS011;14253;44.840;10.444;2023-06-24T11:59:20;3.15;;;2.40;;
26620;SDS011;14253;44.840;10.444;2023-06-24T12:01:54;3.17;;;2.75;;
26620;SDS011;14253;44.840;10.444;2023-06-24T12:04:32;4.22;;;2.42;;
26620;SDS011;14253;44.840;10.444;2023-06-24T12:06:59;3.13;;;2.22;;
26620;SDS011;14253;44.840;10.444;2023-06-24T12:09:25;3.70;;;2.30;;
26620;SDS011;14253;44.840;10.444;2023-06-24T12:11:52;5.50;;;2.30;;
26620;SDS011;14253;44.840;10.444;2023-06-24T12:14:18;2.75;;;2.15;;
26620;SDS011;14253;44.840;10.444;2023-06-24T12:16:44;6.50;;;3.00;;
26620;SDS011;14253;44.840;10.444;2023-06-24T12:19:10;3.35;;;2.47;;
26620;SDS011;14253;44.840;10.444;2023-06-24T12:21:37;2.67;;;2.00;;
26620;SDS011;14253;44.840;10.444;2023-06-24T12:24:03;2.67;;;2.00;;
26620;SDS011;14253;44.840;10.444;2023-06-24T12:26:30;6.35;;;3.40;;
26620;SDS011;14253;44.840;10.444;2023-06-24T12:28:57;4.68;;;2.53;;
26620;SDS011;14253;44.840;10.444;2023-06-24T12:31:23;3.13;;;2.10;;
26620;SDS011;14253;44.840;10.444;2023-06-24T12:33:50;4.32;;;2.30;;
26620;SDS011;14253;44.840;10.444;2023-06-24T12:36:17;3.90;;;2.65;;
26620;SDS011;14253;44.840;10.444;2023-06-24T12:38:43;4.75;;;2.45;;
26620;SDS011;14253;44.840;10.444;2023-06-24T12:41:09;3.40;;;2.40;;
26620;SDS011;14253;44.840;10.444;2023-06-24T12:43:35;3.97;;;2.40;;
26620;SDS011;14253;44.840;10.444;2023-06-24T12:46:01;2.88;;;2.13;;
26620;SDS011;14253;44.840;10.444;2023-06-24T12:48:27;4.80;;;2.05;;
26620;SDS011;14253;44.840;10.444;2023-06-24T12:50:53;6.40;;;2.30;;
26620;SDS011;14253;44.840;10.444;2023-06-24T12:53:19;5.75;;;2.08;;
26620;SDS011;14253;44.840;10.444;2023-06-24T12:55:46;5.50;;;2.03;;
26620;SDS011;14253;44.840;10.444;2023-06-24T12:58:18;3.58;;;2.00;;
26620;SDS011;14253;44.840;10.444;2023-06-24T13:00:45;2.88;;;2.10;;
26620;SDS011;14253;44.840;10.444;2023-06-24T13:03:10;3.55;;;2.38;;
26620;SDS011;14253;44.840;10.444;2023-06-24T13:05:36;2.85;;;2.20;;
26620;SDS011;14253;44.840;10.444;2023-06-24T13:08:02;3.05;;;2.15;;
26620;SDS011;14253;44.840;10.444;2023-06-24T13:10:28;2.85;;;1.75;;
26620;SDS011;14253;44.840;10.444;2023-06-24T13:12:54;2.92;;;1.60;;
26620;SDS011;14253;44.840;10.444;2023-06-24T13:15:21;5.63;;;1.80;;
26620;SDS011;14253;44.840;10.444;2023-06-24T13:17:47;2.33;;;1.67;;
26620;SDS011;14253;44.840;10.444;2023-06-24T13:20:13;1.80;;;1.50;;
26620;SDS011;14253;44.840;10.444;2023-06-24T13:22:39;3.22;;;1.60;;
26620;SDS011;14253;44.840;10.444;2023-06-24T13:25:05;2.50;;;1.60;;
26620;SDS011;14253;44.840;10.444;2023-06-24T13:27:31;3.40;;;2.53;;
26620;SDS011;14253;44.840;10.444;2023-06-24T13:29:57;2.58;;;1.83;;
26620;SDS011;14253;44.840;10.444;2023-06-24T13:32:23;4.30;;;2.15;;
26620;SDS011;14253;44.840;10.444;2023-06-24T13:34:49;2.28;;;1.88;;
26620;SDS011;14253;44.840;10.444;2023-06-24T13:37:15;4.38;;;2.42;;
26620;SDS011;14253;44.840;10.444;2023-06-24T13:39:41;4.38;;;2.03;;
26620;SDS011;14253;44.840;10.444;2023-06-24T13:42:07;6.63;;;2.10;;
26620;SDS011;14253;44.840;10.444;2023-06-24T13:44:33;2.17;;;1.95;;
26620;SDS011;14253;44.840;10.444;2023-06-24T13:46:59;4.60;;;1.92;;
26620;SDS011;14253;44.840;10.444;2023-06-24T13:49:25;3.53;;;1.70;;
26620;SDS011;14253;44.840;10.444;2023-06-24T13:51:51;5.50;;;2.03;;
26620;SDS011;14253;44.840;10.444;2023-06-24T13:54:17;3.90;;;2.03;;
26620;SDS011;14253;44.840;10.444;2023-06-24T13:56:43;2.92;;;1.80;;
26620;SDS011;14253;44.840;10.444;2023-06-24T13:59:09;3.50;;;2.00;;
26620;SDS011;14253;44.840;10.444;2023-06-24T14:01:35;5.03;;;2.05;;
26620;SDS011;14253;44.840;10.444;2023-06-24T14:04:01;2.47;;;1.98;;
26620;SDS011;14253;44.840;10.444;2023-06-24T14:06:27;4.53;;;2.33;;
26620;SDS011;14253;44.840;10.444;2023-06-24T14:08:53;3.15;;;2.22;;
26620;SDS011;14253;44.840;10.444;2023-06-24T14:11:19;4.20;;;2.20;;
26620;SDS011;14253;44.840;10.444;2023-06-24T14:13:45;3.97;;;2.00;;
26620;SDS011;14253;44.840;10.444;2023-06-24T14:16:11;3.70;;;2.13;;
26620;SDS011;14253;44.840;10.444;2023-06-24T14:18:38;3.25;;;2.40;;
26620;SDS011;14253;44.840;10.444;2023-06-24T14:21:05;4.00;;;2.00;;
26620;SDS011;14253;44.840;10.444;2023-06-24T14:23:32;4.57;;;2.13;;
26620;SDS011;14253;44.840;10.444;2023-06-24T14:25:58;6.40;;;2.50;;
26620;SDS011;14253;44.840;10.444;2023-06-24T14:28:24;5.45;;;2.53;;
26620;SDS011;14253;44.840;10.444;2023-06-24T14:30:51;4.78;;;2.53;;
26620;SDS011;14253;44.840;10.444;2023-06-24T14:33:17;3.45;;;2.22;;
26620;SDS011;14253;44.840;10.444;2023-06-24T14:35:43;3.13;;;2.10;;
26620;SDS011;14253;44.840;10.444;2023-06-24T14:38:09;3.65;;;2.60;;
26620;SDS011;14253;44.840;10.444;2023-06-24T14:40:35;3.15;;;2.03;;
26620;SDS011;14253;44.840;10.444;2023-06-24T14:43:01;4.10;;;2.40;;
26620;SDS011;14253;44.840;10.444;2023-06-24T14:45:27;2.42;;;1.98;;
26620;SDS011;14253;44.840;10.444;2023-06-24T14:47:53;6.22;;;2.22;;
26620;SDS011;14253;44.840;10.444;2023-06-24T14:50:19;3.83;;;2.50;;